createdAt,value
2016-12-04T00:00:05.139Z,99.99
2016-12-04T00:01:16.320Z,99.99
2016-12-04T00:02:27.303Z,99.99
2016-12-04T00:03:38.330Z,99.99
2016-12-04T00:04:49.513Z,99.99
2016-12-04T00:06:00.520Z,99.99
2016-12-04T00:07:11.521Z,99.99
2016-12-04T00:08:22.503Z,99.99
2016-12-04T00:09:33.528Z,99.99
2016-12-04T00:10:44.509Z,99.99
2016-12-04T00:11:55.500Z,99.99
2016-12-04T00:13:06.876Z,99.99
2016-12-04T00:14:18.092Z,99.99
2016-12-04T00:15:29.118Z,99.99
2016-12-04T00:16:40.294Z,99.99
2016-12-04T00:17:51.279Z,99.99
2016-12-04T00:19:02.285Z,99.99
2016-12-04T00:20:13.263Z,99.99
2016-12-04T00:21:24.292Z,99.99
2016-12-04T00:22:35.676Z,99.99
2016-12-04T00:23:46.651Z,99.99
2016-12-04T00:24:57.632Z,99.99
2016-12-04T00:26:09.016Z,99.99
2016-12-04T00:27:20.069Z,99.99
2016-12-04T00:28:31.058Z,99.99
2016-12-04T00:29:42.448Z,99.99
2016-12-04T00:30:53.426Z,99.99
2016-12-04T00:32:04.407Z,99.99
2016-12-04T00:33:15.431Z,99.99
2016-12-04T00:34:26.430Z,99.99
2016-12-04T00:35:37.414Z,99.99
2016-12-04T00:36:48.590Z,99.99
2016-12-04T00:37:59.565Z,99.99
2016-12-04T00:39:10.592Z,99.99
2016-12-04T00:40:21.577Z,99.99
2016-12-04T00:41:32.555Z,99.99
2016-12-04T00:42:43.534Z,99.99
2016-12-04T00:43:54.525Z,99.99
2016-12-04T00:45:05.557Z,99.99
2016-12-04T00:46:16.539Z,99.99
2016-12-04T00:47:27.513Z,99.99
2016-12-04T00:48:38.489Z,99.99
2016-12-04T00:49:49.477Z,99.99
2016-12-04T00:51:00.502Z,99.99
2016-12-04T00:52:11.484Z,99.99
2016-12-04T00:53:22.660Z,99.99
2016-12-04T00:54:33.646Z,99.99
2016-12-04T00:55:44.633Z,99.99
2016-12-04T00:56:55.668Z,99.99
2016-12-04T00:58:06.655Z,99.99
2016-12-04T00:59:17.632Z,99.99
2016-12-04T01:00:28.616Z,99.99
2016-12-04T01:01:39.603Z,99.99
2016-12-04T01:02:50.630Z,99.99
2016-12-04T01:04:01.612Z,99.99
2016-12-04T01:05:12.600Z,99.99
2016-12-04T01:06:23.588Z,99.99
2016-12-04T01:07:34.774Z,99.99
2016-12-04T01:08:46.008Z,99.99
2016-12-04T01:09:56.991Z,99.99
2016-12-04T01:11:07.981Z,99.99
2016-12-04T01:12:19.402Z,99.99
2016-12-04T01:13:30.379Z,99.99
2016-12-04T01:14:41.407Z,99.99
2016-12-04T01:15:52.392Z,99.99
2016-12-04T01:17:03.374Z,99.99
2016-12-04T01:18:14.550Z,99.99
2016-12-04T01:19:25.530Z,99.99
2016-12-04T01:20:36.560Z,99.99
2016-12-04T01:21:47.750Z,99.99
2016-12-04T01:22:58.726Z,99.99
2016-12-04T01:24:09.713Z,99.99
2016-12-04T01:25:20.696Z,99.99
2016-12-04T01:26:31.716Z,99.99
2016-12-04T01:27:42.719Z,99.99
2016-12-04T01:28:53.902Z,99.99
2016-12-04T01:30:04.882Z,99.99
2016-12-04T01:31:15.856Z,99.99
2016-12-04T01:32:26.881Z,99.99
2016-12-04T01:33:37.855Z,99.99
2016-12-04T01:34:48.832Z,99.99
2016-12-04T01:35:59.811Z,99.99
2016-12-04T01:37:10.781Z,99.99
2016-12-04T01:38:21.810Z,99.99
2016-12-04T01:39:32.781Z,99.99
2016-12-04T01:40:43.767Z,99.99
2016-12-04T01:41:54.752Z,99.99
2016-12-04T01:43:05.735Z,99.99
2016-12-04T01:44:16.767Z,99.99
2016-12-04T01:45:27.941Z,99.99
2016-12-04T01:46:38.923Z,99.99
2016-12-04T01:47:49.902Z,99.99
2016-12-04T01:49:00.886Z,99.99
2016-12-04T01:50:11.904Z,99.99
2016-12-04T01:51:22.894Z,99.99
2016-12-04T01:52:33.876Z,99.99
2016-12-04T01:53:45.060Z,99.99
2016-12-04T01:54:56.243Z,99.99
2016-12-04T01:56:07.272Z,99.99
2016-12-04T01:57:18.261Z,99.99
2016-12-04T01:58:29.238Z,99.99
2016-12-04T01:59:40.216Z,99.99
2016-12-04T02:00:51.402Z,99.99
2016-12-04T02:02:02.433Z,99.99
2016-12-04T02:03:13.421Z,99.99
2016-12-04T02:04:24.610Z,99.99
2016-12-04T02:05:35.602Z,99.99
2016-12-04T02:06:46.784Z,99.99
2016-12-04T02:07:58.011Z,99.99
2016-12-04T02:09:09.000Z,99.99
2016-12-04T02:10:19.979Z,99.99
2016-12-04T02:11:31.179Z,99.99
2016-12-04T02:12:42.154Z,99.99
2016-12-04T02:13:53.185Z,99.99
2016-12-04T02:15:04.168Z,99.99
2016-12-04T02:16:15.146Z,99.99
2016-12-04T02:17:26.124Z,99.99
2016-12-04T02:18:37.112Z,99.99
2016-12-04T02:19:48.341Z,99.99
2016-12-04T02:20:59.320Z,99.99
2016-12-04T02:22:10.503Z,99.99
2016-12-04T02:23:21.481Z,99.99
2016-12-04T02:24:32.463Z,99.99
2016-12-04T02:25:43.480Z,99.99
2016-12-04T02:26:54.463Z,99.99
2016-12-04T02:28:05.449Z,99.99
2016-12-04T02:29:16.431Z,99.99
2016-12-04T02:30:27.415Z,99.99
2016-12-04T02:31:38.441Z,99.99
2016-12-04T02:32:49.848Z,99.99
2016-12-04T02:34:01.034Z,99.99
2016-12-04T02:35:12.013Z,99.99
2016-12-04T02:36:23.406Z,99.99
2016-12-04T02:37:34.439Z,99.99
2016-12-04T02:38:45.414Z,99.99
2016-12-04T02:39:56.402Z,99.99
2016-12-04T02:41:07.384Z,99.99
2016-12-04T02:42:18.391Z,99.99
2016-12-04T02:43:29.415Z,99.99
2016-12-04T02:44:40.403Z,99.99
2016-12-04T02:45:51.390Z,99.99
2016-12-04T02:47:02.372Z,99.99
2016-12-04T02:48:13.356Z,99.99
2016-12-04T02:49:24.602Z,99.99
2016-12-04T02:50:35.585Z,99.99
2016-12-04T02:51:46.764Z,99.99
2016-12-04T02:52:57.743Z,99.99
2016-12-04T02:54:08.925Z,99.99
2016-12-04T02:55:19.963Z,99.99
2016-12-04T02:56:30.944Z,99.99
2016-12-04T02:57:41.918Z,99.99
2016-12-04T02:58:52.898Z,99.99
2016-12-04T03:00:03.909Z,99.99
2016-12-04T03:01:14.939Z,99.99
2016-12-04T03:02:25.924Z,99.99
2016-12-04T03:03:36.904Z,99.99
2016-12-04T03:04:48.091Z,99.99
2016-12-04T03:05:59.072Z,99.99
2016-12-04T03:07:10.101Z,99.99
2016-12-04T03:08:21.277Z,99.99
2016-12-04T03:09:32.254Z,99.99
2016-12-04T03:10:43.241Z,99.99
2016-12-04T03:11:54.229Z,99.99
2016-12-04T03:13:05.266Z,99.99
2016-12-04T03:14:16.245Z,99.99
2016-12-04T03:15:27.225Z,99.99
2016-12-04T03:16:38.208Z,99.99
2016-12-04T03:17:49.189Z,99.99
2016-12-04T03:19:00.218Z,99.99
2016-12-04T03:20:11.193Z,99.99
2016-12-04T03:21:22.176Z,99.99
2016-12-04T03:22:33.160Z,99.99
2016-12-04T03:23:44.146Z,99.99
2016-12-04T03:24:55.578Z,99.99
2016-12-04T03:26:06.559Z,99.99
2016-12-04T03:27:17.547Z,99.99
2016-12-04T03:28:28.738Z,99.99
2016-12-04T03:29:39.716Z,99.99
2016-12-04T03:30:50.949Z,99.99
2016-12-04T03:32:01.930Z,99.99
2016-12-04T03:33:12.914Z,99.99
2016-12-04T03:34:23.909Z,99.99
2016-12-04T03:35:34.903Z,99.99
2016-12-04T03:36:46.132Z,99.99
2016-12-04T03:37:57.316Z,99.99
2016-12-04T03:39:08.298Z,99.99
2016-12-04T03:40:19.477Z,99.99
2016-12-04T03:41:30.465Z,99.99
2016-12-04T03:42:41.499Z,99.99
2016-12-04T03:43:52.478Z,99.99
2016-12-04T03:45:03.658Z,99.99
2016-12-04T03:46:14.647Z,99.99
2016-12-04T03:47:26.030Z,99.99
2016-12-04T03:48:37.266Z,99.99
2016-12-04T03:49:48.239Z,99.99
2016-12-04T03:50:59.218Z,99.99
2016-12-04T03:52:10.202Z,99.99
2016-12-04T03:53:21.184Z,99.99
2016-12-04T03:54:32.215Z,99.99
2016-12-04T03:55:43.191Z,99.99
2016-12-04T03:56:54.183Z,99.99
2016-12-04T03:58:05.205Z,99.99
2016-12-04T03:59:16.186Z,99.99
2016-12-04T04:00:27.421Z,99.99
2016-12-04T04:01:38.404Z,99.99
2016-12-04T04:02:49.384Z,99.99
2016-12-04T04:04:00.563Z,99.99
2016-12-04T04:05:11.545Z,99.99
2016-12-04T04:06:22.578Z,99.99
2016-12-04T04:07:33.565Z,99.99
2016-12-04T04:08:44.755Z,99.99
2016-12-04T04:09:55.945Z,99.99
2016-12-04T04:11:06.924Z,99.99
2016-12-04T04:12:17.976Z,99.99
2016-12-04T04:13:28.953Z,99.99
2016-12-04T04:14:40.134Z,99.99
2016-12-04T04:15:51.107Z,99.99
2016-12-04T04:17:02.089Z,99.99
2016-12-04T04:18:13.117Z,99.99
2016-12-04T04:19:24.305Z,99.99
2016-12-04T04:20:35.284Z,99.99
2016-12-04T04:21:46.268Z,99.99
2016-12-04T04:22:57.253Z,99.99
2016-12-04T04:24:08.281Z,99.99
2016-12-04T04:25:19.263Z,99.99
2016-12-04T04:26:30.458Z,99.99
2016-12-04T04:27:41.443Z,99.99
2016-12-04T04:28:52.426Z,99.99
2016-12-04T04:30:03.460Z,99.99
2016-12-04T04:31:14.447Z,99.99
2016-12-04T04:32:25.432Z,99.99
2016-12-04T04:33:36.611Z,99.99
2016-12-04T04:34:47.590Z,99.99
2016-12-04T04:35:58.617Z,99.99
2016-12-04T04:37:09.597Z,99.99
2016-12-04T04:38:20.771Z,99.99
2016-12-04T04:39:31.748Z,99.99
2016-12-04T04:40:42.733Z,99.99
2016-12-04T04:41:53.963Z,99.99
2016-12-04T04:43:04.976Z,99.99
2016-12-04T04:44:15.957Z,99.99
2016-12-04T04:45:26.937Z,99.99
2016-12-04T04:46:37.914Z,99.99
2016-12-04T04:47:49.142Z,99.99
2016-12-04T04:49:00.325Z,99.99
2016-12-04T04:50:11.308Z,99.99
2016-12-04T04:51:22.492Z,99.99
2016-12-04T04:52:33.703Z,99.99
2016-12-04T04:53:44.937Z,99.99
2016-12-04T04:54:55.919Z,99.99
2016-12-04T04:56:07.105Z,99.99
2016-12-04T04:57:18.116Z,99.99
2016-12-04T04:58:29.101Z,99.99
2016-12-04T04:59:40.129Z,99.99
2016-12-04T05:00:51.110Z,99.99
2016-12-04T05:02:02.290Z,99.99
2016-12-04T05:03:13.280Z,99.99
2016-12-04T05:04:24.251Z,99.99
2016-12-04T05:05:35.282Z,99.99
2016-12-04T05:06:46.266Z,99.99
2016-12-04T05:07:57.273Z,99.99
2016-12-04T05:09:08.251Z,99.99
2016-12-04T05:10:19.226Z,99.99
2016-12-04T05:11:30.260Z,99.99
2016-12-04T05:12:41.266Z,99.99
2016-12-04T05:13:52.248Z,99.99
2016-12-04T05:15:03.233Z,99.99
2016-12-04T05:16:14.442Z,99.99
2016-12-04T05:17:25.501Z,99.99
2016-12-04T05:18:36.686Z,99.99
2016-12-04T05:19:47.861Z,99.99
2016-12-04T05:20:58.846Z,99.99
2016-12-04T05:22:09.830Z,99.99
2016-12-04T05:23:20.860Z,99.99
2016-12-04T05:24:31.837Z,99.99
2016-12-04T05:25:42.815Z,99.99
2016-12-04T05:26:53.827Z,99.99
2016-12-04T05:28:05.006Z,99.99
2016-12-04T05:29:16.038Z,99.99
2016-12-04T05:30:27.020Z,99.99
2016-12-04T05:31:38.002Z,99.99
2016-12-04T05:32:49.590Z,99.99
2016-12-04T05:34:00.569Z,99.99
2016-12-04T05:35:11.603Z,99.99
2016-12-04T05:36:22.582Z,99.99
2016-12-04T05:37:33.564Z,99.99
2016-12-04T05:38:44.555Z,99.99
2016-12-04T05:39:55.534Z,99.99
2016-12-04T05:41:06.569Z,99.99
2016-12-04T05:42:17.554Z,99.99
2016-12-04T05:43:28.562Z,99.99
2016-12-04T05:44:39.536Z,99.99
2016-12-04T05:45:50.720Z,99.99
2016-12-04T05:47:01.947Z,99.99
2016-12-04T05:48:13.135Z,99.99
2016-12-04T05:49:24.321Z,99.99
2016-12-04T05:50:35.501Z,99.99
2016-12-04T05:51:46.482Z,99.99
2016-12-04T05:52:57.516Z,99.99
2016-12-04T05:54:08.498Z,99.99
2016-12-04T05:55:19.480Z,99.99
2016-12-04T05:56:30.461Z,99.99
2016-12-04T05:57:41.438Z,99.99
2016-12-04T05:58:52.466Z,99.99
2016-12-04T06:00:03.443Z,99.99
2016-12-04T06:01:14.443Z,99.99
2016-12-04T06:02:25.624Z,99.99
2016-12-04T06:03:36.800Z,99.99
2016-12-04T06:04:48.037Z,99.99
2016-12-04T06:05:59.247Z,99.99
2016-12-04T06:07:10.425Z,99.99
2016-12-04T06:08:21.401Z,99.99
2016-12-04T06:09:32.583Z,99.99
2016-12-04T06:10:43.810Z,99.99
2016-12-04T06:11:54.787Z,99.99
2016-12-04T06:13:05.771Z,99.99
2016-12-04T06:14:16.762Z,99.99
2016-12-04T06:15:27.738Z,99.99
2016-12-04T06:16:38.773Z,99.99
2016-12-04T06:17:49.752Z,99.99
2016-12-04T06:19:00.936Z,99.99
2016-12-04T06:20:11.919Z,99.99
2016-12-04T06:21:22.901Z,99.99
2016-12-04T06:22:33.929Z,99.99
2016-12-04T06:23:44.904Z,99.99
2016-12-04T06:24:55.881Z,99.99
2016-12-04T06:26:06.869Z,99.99
2016-12-04T06:27:17.847Z,99.99
2016-12-04T06:28:28.877Z,99.99
2016-12-04T06:29:40.049Z,99.99
2016-12-04T06:30:51.030Z,99.99
2016-12-04T06:32:02.004Z,99.99
2016-12-04T06:33:13.189Z,99.99
2016-12-04T06:34:24.614Z,99.99
2016-12-04T06:35:35.596Z,99.99
2016-12-04T06:36:46.581Z,99.99
2016-12-04T06:37:57.757Z,99.99
2016-12-04T06:39:08.740Z,99.99
2016-12-04T06:40:19.770Z,99.99
2016-12-04T06:41:30.743Z,99.99
2016-12-04T06:42:41.729Z,99.99
2016-12-04T06:43:52.705Z,99.99
2016-12-04T06:45:03.690Z,99.99
2016-12-04T06:46:14.714Z,99.99
2016-12-04T06:47:25.695Z,99.99
2016-12-04T06:48:36.679Z,99.99
2016-12-04T06:49:47.660Z,99.99
2016-12-04T06:50:58.631Z,99.99
2016-12-04T06:52:09.661Z,99.99
2016-12-04T06:53:20.841Z,99.99
2016-12-04T06:54:31.822Z,99.99
2016-12-04T06:55:42.801Z,99.99
2016-12-04T06:56:53.804Z,99.99
2016-12-04T06:58:05.032Z,99.99
2016-12-04T06:59:16.013Z,99.99
2016-12-04T07:00:27.194Z,99.99
2016-12-04T07:01:38.373Z,99.99
2016-12-04T07:02:49.354Z,99.99
2016-12-04T07:04:00.384Z,99.99
2016-12-04T07:05:11.371Z,99.99
2016-12-04T07:06:22.360Z,99.99
2016-12-04T07:07:33.346Z,99.99
2016-12-04T07:08:44.324Z,99.99
2016-12-04T07:09:55.349Z,99.99
2016-12-04T07:11:06.526Z,99.99
2016-12-04T07:12:17.507Z,99.99
2016-12-04T07:13:28.489Z,99.99
2016-12-04T07:14:39.467Z,99.99
2016-12-04T07:15:50.502Z,99.99
2016-12-04T07:17:01.484Z,99.99
2016-12-04T07:18:12.469Z,99.99
2016-12-04T07:19:23.459Z,99.99
2016-12-04T07:20:34.636Z,99.99
2016-12-04T07:21:45.668Z,99.99
2016-12-04T07:22:56.643Z,99.99
2016-12-04T07:24:08.226Z,99.99
2016-12-04T07:25:19.209Z,99.99
2016-12-04T07:26:30.194Z,99.99
2016-12-04T07:27:41.234Z,99.99
2016-12-04T07:28:52.220Z,99.99
2016-12-04T07:30:03.211Z,99.99
2016-12-04T07:31:14.180Z,99.99
2016-12-04T07:32:25.156Z,99.99
2016-12-04T07:33:36.192Z,99.99
2016-12-04T07:34:47.170Z,99.99
2016-12-04T07:35:58.149Z,99.99
2016-12-04T07:37:09.128Z,99.99
2016-12-04T07:38:20.109Z,99.99
2016-12-04T07:39:31.150Z,99.99
2016-12-04T07:40:42.126Z,99.99
2016-12-04T07:41:53.103Z,99.99
2016-12-04T07:43:04.095Z,99.99
2016-12-04T07:44:15.076Z,99.99
2016-12-04T07:45:26.101Z,99.99
2016-12-04T07:46:37.480Z,99.99
2016-12-04T07:47:48.455Z,99.99
2016-12-04T07:48:59.431Z,99.99
2016-12-04T07:50:10.406Z,99.99
2016-12-04T07:51:21.641Z,99.99
2016-12-04T07:52:32.620Z,99.99
2016-12-04T07:53:43.595Z,99.99
2016-12-04T07:54:54.570Z,99.99
2016-12-04T07:56:05.553Z,99.99
2016-12-04T07:57:16.586Z,99.99
2016-12-04T07:58:27.570Z,99.99
2016-12-04T07:59:38.543Z,99.99
2016-12-04T08:00:49.723Z,99.99
2016-12-04T08:02:00.702Z,99.99
2016-12-04T08:03:11.722Z,99.99
2016-12-04T08:04:22.705Z,99.99
2016-12-04T08:05:33.690Z,99.99
2016-12-04T08:06:44.673Z,99.99
2016-12-04T08:07:55.650Z,99.99
2016-12-04T08:09:06.683Z,99.99
2016-12-04T08:10:17.867Z,99.99
2016-12-04T08:11:28.842Z,99.99
2016-12-04T08:12:40.027Z,99.99
2016-12-04T08:13:51.002Z,99.99
2016-12-04T08:15:02.033Z,99.99
2016-12-04T08:16:13.022Z,99.99
2016-12-04T08:17:23.999Z,99.99
2016-12-04T08:18:34.976Z,99.99
2016-12-04T08:19:46.169Z,99.99
2016-12-04T08:20:57.201Z,99.99
2016-12-04T08:22:08.185Z,99.99
2016-12-04T08:23:19.210Z,99.99
2016-12-04T08:24:30.194Z,99.99
2016-12-04T08:25:41.181Z,99.99
2016-12-04T08:26:52.218Z,99.99
2016-12-04T08:28:03.206Z,99.99
2016-12-04T08:29:14.182Z,99.99
2016-12-04T08:30:25.160Z,99.99
2016-12-04T08:31:36.146Z,99.99
2016-12-04T08:32:47.182Z,99.99
2016-12-04T08:33:58.370Z,99.99
2016-12-04T08:35:09.348Z,99.99
2016-12-04T08:36:20.329Z,99.99
2016-12-04T08:37:31.320Z,99.99
2016-12-04T08:38:42.356Z,99.99
2016-12-04T08:39:53.762Z,99.99
2016-12-04T08:41:04.746Z,99.99
2016-12-04T08:42:15.726Z,99.99
2016-12-04T08:43:26.706Z,99.99
2016-12-04T08:44:37.735Z,99.99
2016-12-04T08:45:48.715Z,99.99
2016-12-04T08:46:59.700Z,99.99
2016-12-04T08:48:10.680Z,99.99
2016-12-04T08:49:21.877Z,99.99
2016-12-04T08:50:33.112Z,99.99
2016-12-04T08:51:44.095Z,99.99
2016-12-04T08:52:55.078Z,99.99
2016-12-04T08:54:06.272Z,99.99
2016-12-04T08:55:17.264Z,99.99
2016-12-04T08:56:28.296Z,99.99
2016-12-04T08:57:39.282Z,99.99
2016-12-04T08:58:50.270Z,99.99
2016-12-04T09:00:01.254Z,99.99
2016-12-04T09:01:12.244Z,99.99
2016-12-04T09:02:23.282Z,99.99
2016-12-04T09:03:34.266Z,99.99
2016-12-04T09:04:45.278Z,99.99
2016-12-04T09:05:56.255Z,99.99
2016-12-04T09:07:07.246Z,99.99
2016-12-04T09:08:18.283Z,99.99
2016-12-04T09:09:29.280Z,99.99
2016-12-04T09:10:40.268Z,99.99
2016-12-04T09:11:51.250Z,99.99
2016-12-04T09:13:02.245Z,99.99
2016-12-04T09:14:13.291Z,99.26
2016-12-04T09:15:24.484Z,97.88
2016-12-04T09:16:35.671Z,93.84
2016-12-04T09:17:46.859Z,89.28
2016-12-04T09:18:57.853Z,87.99
2016-12-04T09:20:08.887Z,84.85
2016-12-04T09:21:19.883Z,82.61
2016-12-04T09:22:30.873Z,82.27
2016-12-04T09:23:41.862Z,79.51
2016-12-04T09:24:52.895Z,77.07
2016-12-04T09:26:04.143Z,73.93
2016-12-04T09:27:15.347Z,71.07
2016-12-04T09:28:26.345Z,70.44
2016-12-04T09:29:37.738Z,69.39
2016-12-04T09:30:48.725Z,68.24
2016-12-04T09:31:59.772Z,67.23
2016-12-04T09:33:10.970Z,66.75
2016-12-04T09:34:22.176Z,66.47
2016-12-04T09:35:33.398Z,64.56
2016-12-04T09:36:44.396Z,64.65
2016-12-04T09:37:55.447Z,63.6
2016-12-04T09:39:06.469Z,63.99
2016-12-04T09:40:17.456Z,63.51
2016-12-04T09:41:28.478Z,64.18
2016-12-04T09:42:39.474Z,63.6
2016-12-04T09:43:50.518Z,63.04
2016-12-04T09:45:01.925Z,62.56
2016-12-04T09:46:12.927Z,63.13
2016-12-04T09:47:23.947Z,63.54
2016-12-04T09:48:34.942Z,62.21
2016-12-04T09:49:45.989Z,61.44
2016-12-04T09:50:56.988Z,62.21
2016-12-04T09:52:07.974Z,62.21
2016-12-04T09:53:18.978Z,61.44
2016-12-04T09:54:29.981Z,60.87
2016-12-04T09:55:41.230Z,60.78
2016-12-04T09:56:52.225Z,61.54
2016-12-04T09:58:03.221Z,61.54
2016-12-04T09:59:14.225Z,60.78
2016-12-04T10:00:25.431Z,60.42
2016-12-04T10:01:36.493Z,60.04
2016-12-04T10:02:47.496Z,60.39
2016-12-04T10:03:58.486Z,60.14
2016-12-04T10:05:09.488Z,60.58
2016-12-04T10:06:20.683Z,61.35
2016-12-04T10:07:31.736Z,61.54
2016-12-04T10:08:42.733Z,61.35
2016-12-04T10:09:53.736Z,60.97
2016-12-04T10:11:04.970Z,60.78
2016-12-04T10:12:15.972Z,59.44
2016-12-04T10:13:27.021Z,60.3
2016-12-04T10:14:38.017Z,60.68
2016-12-04T10:15:49.016Z,61.7
2016-12-04T10:17:00.216Z,61.04
2016-12-04T10:18:11.215Z,61.41
2016-12-04T10:19:22.269Z,59.73
2016-12-04T10:20:33.470Z,58.77
2016-12-04T10:21:44.476Z,58.48
2016-12-04T10:22:55.472Z,58.39
2016-12-04T10:24:06.481Z,58.58
2016-12-04T10:25:17.539Z,59.25
2016-12-04T10:26:28.538Z,60.02
2016-12-04T10:27:39.542Z,58.9
2016-12-04T10:28:50.546Z,58.8
2016-12-04T10:30:01.572Z,59.09
2016-12-04T10:31:12.624Z,58.14
2016-12-04T10:32:23.621Z,58.42
2016-12-04T10:33:34.628Z,58.23
2016-12-04T10:34:45.628Z,58.77
2016-12-04T10:35:56.825Z,59.16
2016-12-04T10:37:08.078Z,58.07
2016-12-04T10:38:19.075Z,59.6
2016-12-04T10:39:30.077Z,60.46
2016-12-04T10:40:41.115Z,59.31
2016-12-04T10:41:52.120Z,61.29
2016-12-04T10:43:03.174Z,61.07
2016-12-04T10:44:14.170Z,60.02
2016-12-04T10:45:25.171Z,60.3
2016-12-04T10:46:36.161Z,61.16
2016-12-04T10:47:47.160Z,61.51
2016-12-04T10:48:58.206Z,62.37
2016-12-04T10:50:09.200Z,64.08
2016-12-04T10:51:20.213Z,63.04
2016-12-04T10:52:31.417Z,62.18
2016-12-04T10:53:42.416Z,61.45
2016-12-04T10:54:53.462Z,61.45
2016-12-04T10:56:04.650Z,62.12
2016-12-04T10:57:15.653Z,62.18
2016-12-04T10:58:26.651Z,62.21
2016-12-04T10:59:37.657Z,62.37
2016-12-04T11:00:48.906Z,62.85
2016-12-04T11:02:00.106Z,63.2
2016-12-04T11:03:11.103Z,63.6
2016-12-04T11:04:22.109Z,63.99
2016-12-04T11:05:33.099Z,63.51
2016-12-04T11:06:44.145Z,63.96
2016-12-04T11:07:55.154Z,63.86
2016-12-04T11:09:06.150Z,65.19
2016-12-04T11:10:17.147Z,66.39
2016-12-04T11:11:28.540Z,68.55
2016-12-04T11:12:39.575Z,68.27
2016-12-04T11:13:50.765Z,68.8
2016-12-04T11:15:01.961Z,69.18
2016-12-04T11:16:12.987Z,70.99
2016-12-04T11:17:23.988Z,70.99
2016-12-04T11:18:35.230Z,71.9
2016-12-04T11:19:46.223Z,71.71
2016-12-04T11:20:57.224Z,72.28
2016-12-04T11:22:08.212Z,74.37
2016-12-04T11:23:19.200Z,74.47
2016-12-04T11:24:30.240Z,73.99
2016-12-04T11:25:41.239Z,72.56
2016-12-04T11:26:52.229Z,71.75
2016-12-04T11:28:03.221Z,70.61
2016-12-04T11:29:14.197Z,71.12
2016-12-04T11:30:25.244Z,69.6
2016-12-04T11:31:36.439Z,68.17
2016-12-04T11:32:47.424Z,67.79
2016-12-04T11:33:58.421Z,68.07
2016-12-04T11:35:09.640Z,67.69
2016-12-04T11:36:20.682Z,67.76
2016-12-04T11:37:31.675Z,68.99
2016-12-04T11:38:42.699Z,71.18
2016-12-04T11:39:53.695Z,70.99
2016-12-04T11:41:04.689Z,71.81
2016-12-04T11:42:15.727Z,72.95
2016-12-04T11:43:26.746Z,72.95
2016-12-04T11:44:37.737Z,72.28
2016-12-04T11:45:48.959Z,70.79
2016-12-04T11:46:59.944Z,70.89
2016-12-04T11:48:11.015Z,69.66
2016-12-04T11:49:22.011Z,69.94
2016-12-04T11:50:33.002Z,70.04
2016-12-04T11:51:43.995Z,70.89
2016-12-04T11:52:54.993Z,71.18
2016-12-04T11:54:06.035Z,70.67
2016-12-04T11:55:17.035Z,69.94
2016-12-04T11:56:28.018Z,69.37
2016-12-04T11:57:39.231Z,71.66
2016-12-04T11:58:50.227Z,71.08
2016-12-04T12:00:01.264Z,70.89
2016-12-04T12:01:12.260Z,69.46
2016-12-04T12:02:23.254Z,68.9
2016-12-04T12:03:34.238Z,69.75
2016-12-04T12:04:45.420Z,70
2016-12-04T12:05:56.476Z,70.48
2016-12-04T12:07:07.472Z,71.77
2016-12-04T12:08:18.467Z,72.72
2016-12-04T12:09:29.650Z,72.44
2016-12-04T12:10:40.642Z,72.34
2016-12-04T12:11:51.680Z,72.06
2016-12-04T12:13:02.666Z,71.62
2016-12-04T12:14:13.650Z,71.33
2016-12-04T12:15:24.635Z,71.33
2016-12-04T12:16:36.029Z,72.34
2016-12-04T12:17:47.103Z,74.81
2016-12-04T12:18:58.085Z,75.28
2016-12-04T12:20:09.069Z,74.62
2016-12-04T12:21:20.054Z,73.38
2016-12-04T12:22:31.269Z,73.04
2016-12-04T12:23:42.338Z,72
2016-12-04T12:24:53.327Z,71.71
2016-12-04T12:26:04.346Z,71.56
2016-12-04T12:27:15.329Z,70.79
2016-12-04T12:28:26.312Z,70.32
2016-12-04T12:29:37.348Z,69.6
2016-12-04T12:30:48.344Z,69.31
2016-12-04T12:31:59.337Z,68.49
2016-12-04T12:33:10.533Z,67.35
2016-12-04T12:34:21.525Z,65.83
2016-12-04T12:35:32.559Z,66.05
2016-12-04T12:36:43.556Z,65.77
2016-12-04T12:37:54.551Z,64.81
2016-12-04T12:39:05.538Z,64.08
2016-12-04T12:40:16.549Z,63.42
2016-12-04T12:41:27.582Z,63.64
2016-12-04T12:42:38.573Z,64.5
2016-12-04T12:43:49.558Z,63
2016-12-04T12:45:00.550Z,62.68
2016-12-04T12:46:11.529Z,62.68
2016-12-04T12:47:22.569Z,63.04
2016-12-04T12:48:33.572Z,63.42
2016-12-04T12:49:44.560Z,63.6
2016-12-04T12:50:55.549Z,63.48
2016-12-04T12:52:06.545Z,64.34
2016-12-04T12:53:17.584Z,64.62
2016-12-04T12:54:28.568Z,64.9
2016-12-04T12:55:39.963Z,65.64
2016-12-04T12:56:50.946Z,65.64
2016-12-04T12:58:01.938Z,66.02
2016-12-04T12:59:13.176Z,66.59
2016-12-04T13:00:24.395Z,66.3
2016-12-04T13:01:35.584Z,66.78
2016-12-04T13:02:46.569Z,66.59
2016-12-04T13:03:57.564Z,66.3
2016-12-04T13:05:08.602Z,66.65
2016-12-04T13:06:19.590Z,67.41
2016-12-04T13:07:30.605Z,68.36
2016-12-04T13:08:41.592Z,67.98
2016-12-04T13:09:52.579Z,67.69
2016-12-04T13:11:03.614Z,67.79
2016-12-04T13:12:14.823Z,67.6
2016-12-04T13:13:25.809Z,67.13
2016-12-04T13:14:36.801Z,67.22
2016-12-04T13:15:47.993Z,67.79
2016-12-04T13:16:59.024Z,68.8
2016-12-04T13:18:10.011Z,68.8
2016-12-04T13:19:21.205Z,69.37
2016-12-04T13:20:32.197Z,70.04
2016-12-04T13:21:43.183Z,71.56
2016-12-04T13:22:54.229Z,70.99
2016-12-04T13:24:05.211Z,70.61
2016-12-04T13:25:16.194Z,72.28
2016-12-04T13:26:27.177Z,72.03
2016-12-04T13:27:38.162Z,70.79
2016-12-04T13:28:49.192Z,71.46
2016-12-04T13:30:00.371Z,70.51
2016-12-04T13:31:11.558Z,69.94
2016-12-04T13:32:22.543Z,69.85
2016-12-04T13:33:33.735Z,69.27
2016-12-04T13:34:44.972Z,70.38
2016-12-04T13:35:55.968Z,69.71
2016-12-04T13:37:07.362Z,72.09
2016-12-04T13:38:18.335Z,70.48
2016-12-04T13:39:29.316Z,70.1
2016-12-04T13:40:40.352Z,70.19
2016-12-04T13:41:51.339Z,70.79
2016-12-04T13:43:02.528Z,69.56
2016-12-04T13:44:13.512Z,69.24
2016-12-04T13:45:24.489Z,69.91
2016-12-04T13:46:35.524Z,71.33
2016-12-04T13:47:46.745Z,72.75
2016-12-04T13:48:57.723Z,72.15
2016-12-04T13:50:08.711Z,72.53
2016-12-04T13:51:19.704Z,73
2016-12-04T13:52:30.740Z,74.2
2016-12-04T13:53:41.725Z,74.11
2016-12-04T13:54:52.711Z,74.87
2016-12-04T13:56:03.699Z,76.01
2016-12-04T13:57:14.684Z,76.48
2016-12-04T13:58:25.710Z,76.86
2016-12-04T13:59:36.922Z,76.95
2016-12-04T14:00:47.909Z,77.71
2016-12-04T14:01:58.919Z,78
2016-12-04T14:03:09.901Z,76.67
2016-12-04T14:04:20.930Z,75.72
2016-12-04T14:05:31.913Z,77.11
2016-12-04T14:06:42.902Z,77.48
2016-12-04T14:07:53.912Z,77.58
2016-12-04T14:09:04.900Z,78.05
2016-12-04T14:10:15.935Z,77.96
2016-12-04T14:11:26.927Z,77.77
2016-12-04T14:12:37.924Z,77.77
2016-12-04T14:13:48.913Z,77.77
2016-12-04T14:14:59.901Z,77.48
2016-12-04T14:16:10.933Z,78.15
2016-12-04T14:17:22.130Z,78.34
2016-12-04T14:18:33.121Z,80.9
2016-12-04T14:19:44.100Z,82.13
2016-12-04T14:20:55.312Z,81.75
2016-12-04T14:22:06.347Z,81.09
2016-12-04T14:23:17.340Z,80.14
2016-12-04T14:24:28.324Z,80.67
2016-12-04T14:25:39.311Z,79.95
2016-12-04T14:26:50.298Z,78.87
2016-12-04T14:28:01.528Z,80
2016-12-04T14:29:12.910Z,80.57
2016-12-04T14:30:23.926Z,82.56
2016-12-04T14:31:34.912Z,85.31
2016-12-04T14:32:45.897Z,85.22
2016-12-04T14:33:56.934Z,84.65
2016-12-04T14:35:08.122Z,85.31
2016-12-04T14:36:19.103Z,85.97
2016-12-04T14:37:30.089Z,85.69
2016-12-04T14:38:41.269Z,84.84
2016-12-04T14:39:52.298Z,84.65
2016-12-04T14:41:03.288Z,86.74
2016-12-04T14:42:14.273Z,89.67
2016-12-04T14:43:25.259Z,94.04
2016-12-04T14:44:36.251Z,95.55
2016-12-04T14:45:47.488Z,95.65
2016-12-04T14:46:58.676Z,94.98
2016-12-04T14:48:09.657Z,93.37
2016-12-04T14:49:20.635Z,92.52
2016-12-04T14:50:31.624Z,92.33
2016-12-04T14:51:42.860Z,90.34
2016-12-04T14:52:53.874Z,91
2016-12-04T14:54:04.866Z,90.72
2016-12-04T14:55:15.856Z,91.52
2016-12-04T14:56:26.837Z,93.42
2016-12-04T14:57:38.081Z,95.6
2016-12-04T14:58:49.062Z,97.3
2016-12-04T15:00:00.044Z,97.4
2016-12-04T15:01:11.237Z,98.16
2016-12-04T15:02:22.223Z,98.35
2016-12-04T15:03:33.492Z,99.1
2016-12-04T15:04:44.472Z,99.67
2016-12-04T15:05:55.491Z,99.01
2016-12-04T15:07:06.473Z,99.48
2016-12-04T15:08:17.461Z,99.67
2016-12-04T15:09:28.491Z,99.96
2016-12-04T15:10:39.671Z,99.99
2016-12-04T15:11:50.657Z,99.99
2016-12-04T15:13:01.643Z,99.99
2016-12-04T15:14:12.627Z,99.99
2016-12-04T15:15:23.854Z,99.99
2016-12-04T15:16:34.868Z,99.99